createdAt,value
2023-02-17T00:00:12.681Z,26.39
2023-02-17T00:00:42.678Z,26.37
2023-02-17T00:01:12.672Z,26.39
2023-02-17T00:01:42.673Z,26.39
2023-02-17T00:02:12.692Z,26.37
2023-02-17T00:02:42.837Z,26.34
2023-02-17T00:03:12.891Z,26.40
2023-02-17T00:03:42.958Z,26.39
2023-02-17T00:04:12.952Z,26.40
2023-02-17T00:04:42.945Z,26.37
2023-02-17T00:05:12.944Z,26.39
2023-02-17T00:05:43.053Z,26.39
2023-02-17T00:06:13.051Z,26.37
2023-02-17T00:06:43.052Z,26.36
2023-02-17T00:07:13.052Z,26.36
2023-02-17T00:07:43.048Z,26.39
2023-02-17T00:08:13.169Z,26.39
2023-02-17T00:08:43.158Z,26.37
2023-02-17T00:09:13.282Z,26.37
2023-02-17T00:09:43.274Z,26.37
2023-02-17T00:10:13.270Z,26.37
2023-02-17T00:10:43.264Z,26.39
2023-02-17T00:11:13.383Z,26.40
2023-02-17T00:11:43.377Z,26.39
2023-02-17T00:12:13.378Z,26.37
2023-02-17T00:12:43.374Z,26.40
2023-02-17T00:13:13.493Z,26.37
2023-02-17T00:13:43.610Z,26.36
2023-02-17T00:14:13.777Z,26.39
2023-02-17T00:14:43.773Z,26.36
2023-02-17T00:15:13.771Z,26.39
2023-02-17T00:15:43.892Z,26.37
2023-02-17T00:16:13.937Z,26.34
2023-02-17T00:16:43.926Z,26.37
2023-02-17T00:17:13.922Z,26.37
2023-02-17T00:17:43.914Z,26.37
2023-02-17T00:18:14.057Z,26.36
2023-02-17T00:18:44.030Z,26.39
2023-02-17T00:19:14.149Z,26.36
2023-02-17T00:19:44.264Z,26.36
2023-02-17T00:20:14.277Z,26.37
2023-02-17T00:20:44.414Z,26.36
2023-02-17T00:21:14.521Z,26.36
2023-02-17T00:21:44.640Z,26.36
2023-02-17T00:22:14.645Z,26.36
2023-02-17T00:22:44.757Z,26.36
2023-02-17T00:23:14.872Z,26.37
2023-02-17T00:23:44.869Z,26.36
2023-02-17T00:24:14.987Z,26.37
2023-02-17T00:24:44.984Z,26.39
2023-02-17T00:25:15.108Z,26.37
2023-02-17T00:25:45.217Z,26.39
2023-02-17T00:26:15.225Z,26.39
2023-02-17T00:26:45.267Z,26.39
2023-02-17T00:27:15.260Z,26.34
2023-02-17T00:27:45.270Z,26.36
2023-02-17T00:28:15.252Z,26.36
2023-02-17T00:28:45.397Z,26.36
2023-02-17T00:29:15.376Z,26.34
2023-02-17T00:29:45.512Z,26.36
2023-02-17T00:30:15.668Z,26.34
2023-02-17T00:30:45.686Z,26.36
2023-02-17T00:31:15.755Z,26.39
2023-02-17T00:31:45.904Z,26.34
2023-02-17T00:32:15.803Z,26.34
2023-02-17T00:32:45.813Z,26.33
2023-02-17T00:33:15.806Z,26.34
2023-02-17T00:33:45.835Z,26.34
2023-02-17T00:34:15.796Z,26.34
2023-02-17T00:34:45.914Z,26.34
2023-02-17T00:35:15.913Z,26.34
2023-02-17T00:35:46.032Z,26.33
2023-02-17T00:36:16.162Z,26.34
2023-02-17T00:36:46.293Z,26.33
2023-02-17T00:37:16.302Z,26.36
2023-02-17T00:37:46.406Z,26.36
2023-02-17T00:38:16.414Z,26.34
2023-02-17T00:38:46.531Z,26.34
2023-02-17T00:39:16.645Z,26.34
2023-02-17T00:39:46.642Z,26.34
2023-02-17T00:40:16.637Z,26.36
2023-02-17T00:40:46.753Z,26.33
2023-02-17T00:41:16.873Z,26.37
2023-02-17T00:41:47.051Z,26.36
2023-02-17T00:42:17.035Z,26.32
2023-02-17T00:42:47.034Z,26.34
2023-02-17T00:43:17.038Z,26.33
2023-02-17T00:43:47.218Z,26.33
2023-02-17T00:44:17.250Z,26.33
2023-02-17T00:44:47.231Z,26.34
2023-02-17T00:45:17.328Z,26.34
2023-02-17T00:45:47.407Z,26.33
2023-02-17T00:46:17.542Z,26.34
2023-02-17T00:46:47.665Z,26.32
2023-02-17T00:47:17.623Z,26.33
2023-02-17T00:47:47.713Z,26.36
2023-02-17T00:48:17.804Z,26.32
2023-02-17T00:48:47.985Z,26.32
2023-02-17T00:49:17.975Z,26.32
2023-02-17T00:49:48.060Z,26.33
2023-02-17T00:50:18.142Z,26.32
2023-02-17T00:50:48.231Z,26.33
2023-02-17T00:51:18.308Z,26.33
2023-02-17T00:51:48.392Z,26.33
2023-02-17T00:52:18.473Z,26.34
2023-02-17T00:52:48.547Z,26.33
2023-02-17T00:53:18.653Z,26.32
2023-02-17T00:53:48.726Z,26.32
2023-02-17T00:54:18.811Z,26.33
2023-02-17T00:54:48.892Z,26.30
2023-02-17T00:55:18.898Z,26.32
2023-02-17T00:55:49.012Z,26.33
2023-02-17T00:56:19.134Z,26.32
2023-02-17T00:56:49.251Z,26.33
2023-02-17T00:57:19.388Z,26.33
2023-02-17T00:57:49.380Z,26.32
2023-02-17T00:58:19.373Z,26.34
2023-02-17T00:58:49.391Z,26.33
2023-02-17T00:59:19.426Z,26.32
2023-02-17T00:59:49.431Z,26.33
2023-02-17T01:00:19.542Z,26.30
2023-02-17T01:00:49.544Z,26.32
2023-02-17T01:01:19.591Z,26.32
2023-02-17T01:01:49.674Z,26.34
2023-02-17T01:02:19.672Z,26.32
2023-02-17T01:02:49.670Z,26.32
2023-02-17T01:03:19.788Z,26.30
2023-02-17T01:03:49.825Z,26.29
2023-02-17T01:04:19.928Z,26.32
2023-02-17T01:04:49.958Z,26.32
2023-02-17T01:05:19.987Z,26.32
2023-02-17T01:05:50.101Z,26.32
2023-02-17T01:06:20.221Z,26.32
2023-02-17T01:06:50.346Z,26.33
2023-02-17T01:07:20.350Z,26.33
2023-02-17T01:07:50.339Z,26.32
2023-02-17T01:08:20.468Z,26.30
2023-02-17T01:08:50.465Z,26.32
2023-02-17T01:09:20.463Z,26.30
2023-02-17T01:09:50.464Z,26.32
2023-02-17T01:10:20.470Z,26.32
2023-02-17T01:10:50.462Z,26.27
2023-02-17T01:11:20.457Z,26.29
2023-02-17T01:11:50.575Z,26.32
2023-02-17T01:12:20.692Z,26.32
2023-02-17T01:12:50.691Z,26.30
2023-02-17T01:13:20.815Z,26.32
2023-02-17T01:13:50.932Z,26.30
2023-02-17T01:14:20.931Z,26.29
2023-02-17T01:14:50.934Z,26.32
2023-02-17T01:15:21.041Z,26.30
2023-02-17T01:15:51.194Z,26.32
2023-02-17T01:16:21.254Z,26.27
2023-02-17T01:16:51.274Z,26.30
2023-02-17T01:17:21.279Z,26.32
2023-02-17T01:17:51.271Z,26.32
2023-02-17T01:18:21.393Z,26.29
2023-02-17T01:18:51.407Z,26.29
2023-02-17T01:19:21.386Z,26.29
2023-02-17T01:19:51.395Z,26.33
2023-02-17T01:20:21.378Z,26.32
2023-02-17T01:20:51.386Z,26.30
2023-02-17T01:21:21.496Z,26.30
2023-02-17T01:21:51.486Z,26.27
2023-02-17T01:22:21.486Z,26.32
2023-02-17T01:22:51.601Z,26.30
2023-02-17T01:23:21.721Z,26.29
2023-02-17T01:23:51.724Z,26.29
2023-02-17T01:24:21.836Z,26.27
2023-02-17T01:24:51.833Z,26.29
2023-02-17T01:25:21.839Z,26.30
2023-02-17T01:25:51.943Z,26.29
2023-02-17T01:26:22.071Z,26.29
2023-02-17T01:26:52.065Z,26.30
2023-02-17T01:27:22.186Z,26.32
2023-02-17T01:27:52.297Z,26.27
2023-02-17T01:28:22.296Z,26.30
2023-02-17T01:28:52.408Z,26.30
2023-02-17T01:29:22.527Z,26.29
2023-02-17T01:29:52.523Z,26.29
2023-02-17T01:30:22.598Z,26.30
2023-02-17T01:30:52.601Z,26.29
2023-02-17T01:31:22.747Z,26.30
2023-02-17T01:31:52.685Z,26.29
2023-02-17T01:32:22.667Z,26.30
2023-02-17T01:32:52.667Z,26.30
2023-02-17T01:33:22.786Z,26.29
2023-02-17T01:33:52.917Z,26.30
2023-02-17T01:34:22.933Z,26.29
2023-02-17T01:34:52.904Z,26.29
2023-02-17T01:35:22.974Z,26.29
2023-02-17T01:35:52.979Z,26.30
2023-02-17T01:36:22.974Z,26.27
2023-02-17T01:36:53.098Z,26.27
2023-02-17T01:37:23.217Z,26.27
2023-02-17T01:37:53.221Z,26.30
2023-02-17T01:38:23.330Z,26.30
2023-02-17T01:38:53.334Z,26.29
2023-02-17T01:39:23.333Z,26.29
2023-02-17T01:39:53.442Z,26.26
2023-02-17T01:40:23.456Z,26.27
2023-02-17T01:40:53.445Z,26.30
2023-02-17T01:41:23.562Z,26.27
2023-02-17T01:41:53.678Z,26.29
2023-02-17T01:42:23.646Z,26.30
2023-02-17T01:42:53.768Z,26.27
2023-02-17T01:43:23.759Z,26.27
2023-02-17T01:43:53.880Z,26.24
2023-02-17T01:44:24.028Z,26.29
2023-02-17T01:44:54.109Z,26.27
2023-02-17T01:45:24.191Z,26.29
2023-02-17T01:45:54.279Z,26.24
2023-02-17T01:46:24.393Z,26.27
2023-02-17T01:46:54.499Z,26.27
2023-02-17T01:47:24.475Z,26.24
2023-02-17T01:47:54.557Z,26.26
2023-02-17T01:48:24.645Z,26.26
2023-02-17T01:48:54.733Z,26.30
2023-02-17T01:49:24.817Z,26.29
2023-02-17T01:49:54.937Z,26.30
2023-02-17T01:50:24.997Z,26.29
2023-02-17T01:50:55.073Z,26.26
2023-02-17T01:51:25.182Z,26.27
2023-02-17T01:51:55.255Z,26.27
2023-02-17T01:52:25.336Z,26.26
2023-02-17T01:52:55.424Z,26.26
2023-02-17T01:53:25.500Z,26.24
2023-02-17T01:53:55.579Z,26.27
2023-02-17T01:54:25.680Z,26.26
2023-02-17T01:54:55.688Z,26.29
2023-02-17T01:55:25.791Z,26.24
2023-02-17T01:55:55.793Z,26.26
2023-02-17T01:56:25.787Z,26.29
2023-02-17T01:56:55.814Z,26.26
2023-02-17T01:57:25.791Z,26.26
2023-02-17T01:57:55.783Z,26.26
2023-02-17T01:58:25.783Z,26.27
2023-02-17T01:58:55.785Z,26.26
2023-02-17T01:59:25.909Z,26.26
2023-02-17T01:59:55.911Z,26.26
2023-02-17T02:00:25.910Z,26.27
2023-02-17T02:00:56.030Z,26.26
2023-02-17T02:01:26.029Z,26.24
2023-02-17T02:01:56.300Z,26.26
2023-02-17T02:02:26.229Z,26.24
2023-02-17T02:02:56.311Z,26.26
2023-02-17T02:03:26.267Z,26.24
2023-02-17T02:03:56.286Z,26.26
2023-02-17T02:04:26.281Z,26.26
2023-02-17T02:04:56.276Z,26.26
2023-02-17T02:05:26.420Z,26.27
2023-02-17T02:05:56.389Z,26.26
2023-02-17T02:06:26.509Z,26.23
2023-02-17T02:06:56.506Z,26.27
2023-02-17T02:07:26.520Z,26.27
2023-02-17T02:07:56.511Z,26.24
2023-02-17T02:08:26.510Z,26.27
2023-02-17T02:08:56.511Z,26.26
2023-02-17T02:09:26.502Z,26.23
2023-02-17T02:09:56.504Z,26.26
2023-02-17T02:10:26.504Z,26.26
2023-02-17T02:10:56.508Z,26.27
2023-02-17T02:11:26.505Z,26.27
2023-02-17T02:11:56.614Z,26.26
2023-02-17T02:12:26.740Z,26.23
2023-02-17T02:12:56.732Z,26.23
2023-02-17T02:13:26.731Z,26.26
2023-02-17T02:13:56.732Z,26.27
2023-02-17T02:14:26.727Z,26.23
2023-02-17T02:14:56.729Z,26.24
2023-02-17T02:15:26.837Z,26.23
2023-02-17T02:15:56.841Z,26.24
2023-02-17T02:16:27.033Z,26.24
2023-02-17T02:16:57.053Z,26.23
2023-02-17T02:17:27.055Z,26.26
2023-02-17T02:17:57.060Z,26.24
2023-02-17T02:18:27.048Z,26.23
2023-02-17T02:18:57.047Z,26.24
2023-02-17T02:19:27.064Z,26.27
2023-02-17T02:19:57.066Z,26.24
2023-02-17T02:20:27.054Z,26.26
2023-02-17T02:20:57.208Z,26.24
2023-02-17T02:21:27.181Z,26.26
2023-02-17T02:21:57.301Z,26.23
2023-02-17T02:22:27.415Z,26.23
2023-02-17T02:22:57.450Z,26.23
2023-02-17T02:23:27.418Z,26.24
2023-02-17T02:23:57.538Z,26.23
2023-02-17T02:24:27.648Z,26.26
2023-02-17T02:24:57.651Z,26.24
2023-02-17T02:25:27.759Z,26.26
2023-02-17T02:25:57.889Z,26.24
2023-02-17T02:26:27.907Z,26.23
2023-02-17T02:26:58.019Z,26.26
2023-02-17T02:27:28.020Z,26.26
2023-02-17T02:27:58.020Z,26.24
2023-02-17T02:28:28.013Z,26.24
2023-02-17T02:28:58.129Z,26.22
2023-02-17T02:29:28.131Z,26.24
2023-02-17T02:29:58.184Z,26.24
2023-02-17T02:30:28.367Z,26.24
2023-02-17T02:30:58.320Z,26.23
2023-02-17T02:31:28.306Z,26.22
2023-02-17T02:31:58.312Z,26.23
2023-02-17T02:32:28.306Z,26.24
2023-02-17T02:32:58.313Z,26.23
2023-02-17T02:33:28.304Z,26.22
2023-02-17T02:33:58.426Z,26.22
2023-02-17T02:34:28.553Z,26.23
2023-02-17T02:34:58.545Z,26.23
2023-02-17T02:35:28.665Z,26.24
2023-02-17T02:35:58.779Z,26.23
2023-02-17T02:36:28.920Z,26.22
2023-02-17T02:36:59.016Z,26.22
2023-02-17T02:37:29.140Z,26.23
2023-02-17T02:37:59.248Z,26.23
2023-02-17T02:38:29.245Z,26.23
2023-02-17T02:38:59.365Z,26.23
2023-02-17T02:39:29.388Z,26.20
2023-02-17T02:39:59.380Z,26.22
2023-02-17T02:40:29.499Z,26.24
2023-02-17T02:40:59.504Z,26.24
2023-02-17T02:41:29.495Z,26.22
2023-02-17T02:41:59.616Z,26.23
2023-02-17T02:42:29.736Z,26.22
2023-02-17T02:42:59.736Z,26.23
2023-02-17T02:43:29.851Z,26.22
2023-02-17T02:43:59.856Z,26.19
2023-02-17T02:44:29.886Z,26.22
2023-02-17T02:44:59.857Z,26.20
2023-02-17T02:45:29.995Z,26.20
2023-02-17T02:45:59.970Z,26.23
2023-02-17T02:46:30.046Z,26.22
2023-02-17T02:47:00.127Z,26.23
2023-02-17T02:47:30.210Z,26.22
2023-02-17T02:48:00.288Z,26.23
2023-02-17T02:48:30.375Z,26.23
2023-02-17T02:49:00.463Z,26.23
2023-02-17T02:49:30.539Z,26.20
2023-02-17T02:50:00.633Z,26.24
2023-02-17T02:50:30.705Z,26.22
2023-02-17T02:51:00.799Z,26.22
2023-02-17T02:51:30.890Z,26.22
2023-02-17T02:52:00.948Z,26.20
2023-02-17T02:52:31.029Z,26.24
2023-02-17T02:53:01.112Z,26.23
2023-02-17T02:53:31.201Z,26.23
2023-02-17T02:54:01.275Z,26.22
2023-02-17T02:54:31.357Z,26.22
2023-02-17T02:55:01.471Z,26.23
2023-02-17T02:55:31.583Z,26.20
2023-02-17T02:56:01.713Z,26.20
2023-02-17T02:56:31.703Z,26.20
2023-02-17T02:57:01.723Z,26.19
2023-02-17T02:57:31.811Z,26.20
2023-02-17T02:58:01.934Z,26.23
2023-02-17T02:58:31.969Z,26.22
2023-02-17T02:59:01.962Z,26.22
2023-02-17T02:59:31.963Z,26.23
2023-02-17T03:00:01.956Z,26.22
2023-02-17T03:00:32.075Z,26.19
2023-02-17T03:01:02.116Z,26.23
2023-02-17T03:01:32.097Z,26.19
2023-02-17T03:02:02.245Z,26.22
2023-02-17T03:02:32.246Z,26.20
2023-02-17T03:03:02.214Z,26.19
2023-02-17T03:03:32.346Z,26.19
2023-02-17T03:04:02.495Z,26.20
2023-02-17T03:04:32.484Z,26.20
2023-02-17T03:05:02.475Z,26.20
2023-02-17T03:05:32.610Z,26.19
2023-02-17T03:06:02.590Z,26.19
2023-02-17T03:06:32.609Z,26.20
2023-02-17T03:07:02.702Z,26.19
2023-02-17T03:07:32.706Z,26.19
2023-02-17T03:08:02.695Z,26.20
2023-02-17T03:08:32.812Z,26.22
2023-02-17T03:09:02.809Z,26.22
2023-02-17T03:09:32.814Z,26.20
2023-02-17T03:10:02.845Z,26.20
2023-02-17T03:10:32.838Z,26.20
2023-02-17T03:11:02.832Z,26.19
2023-02-17T03:11:32.850Z,26.20
2023-02-17T03:12:02.970Z,26.20
2023-02-17T03:12:32.945Z,26.20
2023-02-17T03:13:03.062Z,26.20
2023-02-17T03:13:33.182Z,26.20
2023-02-17T03:14:03.298Z,26.19
2023-02-17T03:14:33.299Z,26.20
2023-02-17T03:15:03.418Z,26.20
2023-02-17T03:15:33.414Z,26.17
2023-02-17T03:16:03.663Z,26.20
2023-02-17T03:16:34.492Z,26.22
2023-02-17T03:17:03.457Z,26.20
2023-02-17T03:17:33.448Z,26.20
2023-02-17T03:18:03.577Z,26.19
2023-02-17T03:18:33.573Z,26.19
2023-02-17T03:19:03.598Z,26.19
2023-02-17T03:19:33.624Z,26.19
2023-02-17T03:20:03.615Z,26.19
2023-02-17T03:20:33.610Z,26.19
2023-02-17T03:21:03.606Z,26.19
2023-02-17T03:21:33.607Z,26.16
2023-02-17T03:22:03.622Z,26.17
2023-02-17T03:22:33.729Z,26.16
2023-02-17T03:23:03.842Z,26.19
2023-02-17T03:23:33.839Z,26.20
2023-02-17T03:24:03.994Z,26.17
2023-02-17T03:24:33.966Z,26.19
2023-02-17T03:25:03.969Z,26.19
2023-02-17T03:25:34.123Z,26.17
2023-02-17T03:26:04.374Z,26.17
2023-02-17T03:26:34.218Z,26.17
2023-02-17T03:27:04.256Z,26.17
2023-02-17T03:27:34.226Z,26.16
2023-02-17T03:28:04.225Z,26.15
2023-02-17T03:28:34.216Z,26.17
2023-02-17T03:29:04.366Z,26.20
2023-02-17T03:29:34.362Z,26.19
2023-02-17T03:30:04.435Z,26.17
2023-02-17T03:30:34.430Z,26.19
2023-02-17T03:31:04.596Z,26.17
2023-02-17T03:31:34.671Z,26.20
2023-02-17T03:32:04.735Z,26.17
2023-02-17T03:32:34.728Z,26.19
2023-02-17T03:33:04.727Z,26.17
2023-02-17T03:33:34.719Z,26.19
2023-02-17T03:34:04.740Z,26.17
2023-02-17T03:34:34.731Z,26.17
2023-02-17T03:35:04.744Z,26.17
2023-02-17T03:35:34.852Z,26.16
2023-02-17T03:36:05.219Z,26.17
2023-02-17T03:36:34.864Z,26.17
2023-02-17T03:37:04.974Z,26.17
2023-02-17T03:37:35.116Z,26.16
2023-02-17T03:38:05.090Z,26.16
2023-02-17T03:38:35.208Z,26.19
2023-02-17T03:39:05.348Z,26.19
2023-02-17T03:39:35.376Z,26.17
2023-02-17T03:40:05.363Z,26.17
2023-02-17T03:40:35.369Z,26.17
2023-02-17T03:41:05.357Z,26.17
2023-02-17T03:41:35.496Z,26.16
2023-02-17T03:42:05.614Z,26.19
2023-02-17T03:42:35.605Z,26.17
2023-02-17T03:43:05.621Z,26.17
2023-02-17T03:43:35.729Z,26.19
2023-02-17T03:44:05.745Z,26.17
2023-02-17T03:44:35.741Z,26.20
2023-02-17T03:45:05.821Z,26.17
2023-02-17T03:45:35.926Z,26.15
2023-02-17T03:46:06.299Z,26.16
2023-02-17T03:46:36.055Z,26.19
2023-02-17T03:47:06.140Z,26.17
2023-02-17T03:47:36.228Z,26.15
2023-02-17T03:48:06.318Z,26.17
2023-02-17T03:48:36.405Z,26.16
2023-02-17T03:49:06.490Z,26.17
2023-02-17T03:49:36.580Z,26.19
2023-02-17T03:50:06.609Z,26.15
2023-02-17T03:50:36.680Z,26.17
2023-02-17T03:51:06.762Z,26.19
2023-02-17T03:51:36.880Z,26.20
2023-02-17T03:52:06.939Z,26.19
2023-02-17T03:52:37.048Z,26.20
2023-02-17T03:53:07.106Z,26.19
2023-02-17T03:53:37.183Z,26.20
2023-02-17T03:54:07.270Z,26.19
2023-02-17T03:54:37.351Z,26.23
2023-02-17T03:55:07.343Z,26.22
2023-02-17T03:55:37.341Z,26.24
2023-02-17T03:56:07.635Z,26.23
2023-02-17T03:56:37.345Z,26.26
2023-02-17T03:57:07.366Z,26.27
2023-02-17T03:57:37.335Z,26.27
2023-02-17T03:58:07.387Z,26.30
2023-02-17T03:58:37.384Z,26.30
2023-02-17T03:59:07.379Z,26.29
2023-02-17T03:59:37.519Z,26.32
2023-02-17T04:00:07.528Z,26.33
2023-02-17T04:00:37.506Z,26.32
2023-02-17T04:01:07.565Z,26.33
2023-02-17T04:01:37.596Z,26.34
2023-02-17T04:02:07.571Z,26.36
2023-02-17T04:02:37.570Z,26.39
2023-02-17T04:03:07.556Z,26.39
2023-02-17T04:03:37.678Z,26.39
2023-02-17T04:04:07.732Z,26.40
2023-02-17T04:04:37.722Z,26.40
2023-02-17T04:05:07.721Z,26.40
2023-02-17T04:05:37.715Z,26.40
2023-02-17T04:06:08.127Z,26.41
2023-02-17T04:06:37.800Z,26.43
2023-02-17T04:07:07.793Z,26.44
2023-02-17T04:07:37.910Z,26.43
2023-02-17T04:08:07.928Z,26.46
2023-02-17T04:08:38.024Z,26.47
2023-02-17T04:09:08.145Z,26.46
2023-02-17T04:09:38.174Z,26.47
2023-02-17T04:10:09.545Z,26.47
2023-02-17T04:10:38.279Z,26.50
2023-02-17T04:11:08.271Z,26.48
2023-02-17T04:11:38.270Z,26.48
2023-02-17T04:12:08.269Z,26.48
2023-02-17T04:12:38.403Z,26.48
2023-02-17T04:13:08.389Z,26.50
2023-02-17T04:13:38.389Z,26.53
2023-02-17T04:14:08.380Z,26.53
2023-02-17T04:14:38.393Z,26.48
2023-02-17T04:15:08.388Z,26.50
2023-02-17T04:15:38.529Z,26.53
2023-02-17T04:16:08.920Z,26.53
2023-02-17T04:16:38.564Z,26.51
2023-02-17T04:17:08.691Z,26.54
2023-02-17T04:17:38.689Z,26.53
2023-02-17T04:18:08.675Z,26.55
2023-02-17T04:18:38.790Z,26.53
2023-02-17T04:19:08.788Z,26.53
2023-02-17T04:19:38.796Z,26.54
2023-02-17T04:20:08.792Z,26.55
2023-02-17T04:20:38.790Z,26.55
2023-02-17T04:21:08.793Z,26.58
2023-02-17T04:21:38.893Z,26.58
2023-02-17T04:22:08.981Z,26.60
2023-02-17T04:22:38.990Z,26.60
2023-02-17T04:23:09.128Z,26.58
2023-02-17T04:23:39.229Z,26.58
2023-02-17T04:24:09.260Z,26.60
2023-02-17T04:24:39.249Z,26.61
2023-02-17T04:25:09.285Z,26.58
2023-02-17T04:25:39.257Z,26.58
2023-02-17T04:26:09.416Z,26.61
2023-02-17T04:26:39.402Z,26.60
2023-02-17T04:27:09.384Z,26.60
2023-02-17T04:27:39.432Z,26.60
2023-02-17T04:28:09.426Z,26.58
2023-02-17T04:28:39.420Z,26.61
2023-02-17T04:29:09.542Z,26.61
2023-02-17T04:29:39.668Z,26.60
2023-02-17T04:30:12.304Z,26.61
2023-02-17T04:30:39.879Z,26.60
2023-02-17T04:31:10.228Z,26.61
2023-02-17T04:31:40.160Z,26.62
2023-02-17T04:32:10.147Z,26.60
2023-02-17T04:32:40.125Z,26.61
2023-02-17T04:33:10.132Z,26.61
2023-02-17T04:33:40.133Z,26.62
2023-02-17T04:34:10.248Z,26.61
2023-02-17T04:34:40.245Z,26.61
2023-02-17T04:35:10.382Z,26.64
2023-02-17T04:35:40.483Z,26.64
2023-02-17T04:36:10.484Z,26.62
2023-02-17T04:36:40.487Z,26.62
2023-02-17T04:37:10.508Z,26.64
2023-02-17T04:37:40.505Z,26.62
2023-02-17T04:38:10.631Z,26.64
2023-02-17T04:38:40.761Z,26.64
2023-02-17T04:39:10.748Z,26.65
2023-02-17T04:39:40.743Z,26.65
2023-02-17T04:40:10.856Z,26.67
2023-02-17T04:40:40.888Z,26.65
2023-02-17T04:41:10.875Z,26.65
2023-02-17T04:41:40.996Z,26.67
2023-02-17T04:42:10.985Z,26.68
2023-02-17T04:42:41.011Z,26.64
2023-02-17T04:43:11.118Z,26.67
2023-02-17T04:43:41.229Z,26.67
2023-02-17T04:44:11.346Z,26.67
2023-02-17T04:44:41.464Z,26.67
2023-02-17T04:45:11.568Z,26.68
2023-02-17T04:45:41.644Z,26.65
2023-02-17T04:46:11.889Z,26.65
2023-02-17T04:46:41.759Z,26.67
2023-02-17T04:47:11.841Z,26.67
2023-02-17T04:47:41.921Z,26.65
2023-02-17T04:48:12.001Z,26.68
2023-02-17T04:48:42.089Z,26.68
2023-02-17T04:49:12.164Z,26.67
2023-02-17T04:49:42.249Z,26.68
2023-02-17T04:50:12.331Z,26.67
2023-02-17T04:50:42.415Z,26.68
2023-02-17T04:51:12.495Z,26.65
2023-02-17T04:51:42.579Z,26.67
2023-02-17T04:52:12.687Z,26.62
2023-02-17T04:52:42.740Z,26.65
2023-02-17T04:53:12.825Z,26.64
2023-02-17T04:53:42.911Z,26.64
2023-02-17T04:54:13.022Z,26.62
2023-02-17T04:54:43.082Z,26.62
2023-02-17T04:55:13.083Z,26.61
2023-02-17T04:55:43.205Z,26.61
2023-02-17T04:56:13.203Z,26.62
2023-02-17T04:56:43.198Z,26.60
2023-02-17T04:57:13.314Z,26.62
2023-02-17T04:57:43.326Z,26.60
2023-02-17T04:58:13.319Z,26.61
2023-02-17T04:58:43.459Z,26.58
2023-02-17T04:59:13.435Z,26.58
2023-02-17T04:59:43.437Z,26.61
2023-02-17T05:00:13.552Z,26.58
2023-02-17T05:00:43.552Z,26.60
2023-02-17T05:01:13.579Z,26.58
2023-02-17T05:01:43.567Z,26.61
2023-02-17T05:02:13.564Z,26.58
2023-02-17T05:02:43.683Z,26.60
2023-02-17T05:03:13.805Z,26.60
2023-02-17T05:03:43.924Z,26.58
2023-02-17T05:04:13.944Z,26.61
2023-02-17T05:04:45.966Z,26.57
2023-02-17T05:05:14.156Z,26.58
2023-02-17T05:05:44.153Z,26.58
2023-02-17T05:06:14.272Z,26.57
2023-02-17T05:06:44.395Z,26.55
2023-02-17T05:07:14.386Z,26.58
2023-02-17T05:07:44.508Z,26.57
2023-02-17T05:08:14.509Z,26.58
2023-02-17T05:08:44.499Z,26.57
2023-02-17T05:09:14.621Z,26.60
2023-02-17T05:09:44.650Z,26.57
2023-02-17T05:10:14.619Z,26.57
2023-02-17T05:10:44.735Z,26.58
2023-02-17T05:11:14.740Z,26.57
2023-02-17T05:11:44.725Z,26.57
2023-02-17T05:12:14.734Z,26.54
2023-02-17T05:12:44.747Z,26.55
2023-02-17T05:13:14.734Z,26.54
2023-02-17T05:13:44.871Z,26.53
2023-02-17T05:14:14.858Z,26.57
2023-02-17T05:14:44.982Z,26.55
2023-02-17T05:15:14.974Z,26.58
2023-02-17T05:15:45.028Z,26.57
2023-02-17T05:16:15.037Z,26.57
2023-02-17T05:16:45.094Z,26.54
2023-02-17T05:17:15.095Z,26.55
2023-02-17T05:17:45.094Z,26.54
2023-02-17T05:18:15.092Z,26.54
2023-02-17T05:18:45.081Z,26.53
2023-02-17T05:19:15.194Z,26.54
2023-02-17T05:19:45.212Z,26.54
2023-02-17T05:20:15.215Z,26.54
2023-02-17T05:20:45.216Z,26.54
2023-02-17T05:21:15.216Z,26.54
2023-02-17T05:21:45.210Z,26.54
2023-02-17T05:22:15.206Z,26.54
2023-02-17T05:22:45.204Z,26.54
2023-02-17T05:23:15.197Z,26.55
2023-02-17T05:23:45.325Z,26.54
2023-02-17T05:24:15.436Z,26.55
2023-02-17T05:24:45.565Z,26.55
2023-02-17T05:25:15.575Z,26.53
2023-02-17T05:25:45.556Z,26.54
2023-02-17T05:26:15.670Z,26.55
2023-02-17T05:26:45.667Z,26.55
2023-02-17T05:27:15.667Z,26.55
2023-02-17T05:27:45.778Z,26.54
2023-02-17T05:28:15.791Z,26.55
2023-02-17T05:28:45.767Z,26.54
2023-02-17T05:29:15.882Z,26.55
2023-02-17T05:29:45.885Z,26.57
2023-02-17T05:30:15.931Z,26.57
2023-02-17T05:30:45.940Z,26.55
2023-02-17T05:31:16.003Z,26.55
2023-02-17T05:31:46.224Z,26.58
2023-02-17T05:32:15.993Z,26.61
2023-02-17T05:32:45.997Z,26.57
2023-02-17T05:33:16.118Z,26.58
2023-02-17T05:33:46.243Z,26.61
2023-02-17T05:34:16.244Z,26.64
2023-02-17T05:34:46.247Z,26.60
2023-02-17T05:35:16.342Z,26.60
2023-02-17T05:35:46.339Z,26.62
2023-02-17T05:36:16.346Z,26.62
2023-02-17T05:36:46.457Z,26.65
2023-02-17T05:37:16.469Z,26.62
2023-02-17T05:37:46.591Z,26.65
2023-02-17T05:38:16.697Z,26.64
2023-02-17T05:38:46.687Z,26.64
2023-02-17T05:39:16.689Z,26.65
2023-02-17T05:39:46.692Z,26.67
2023-02-17T05:40:16.803Z,26.68
2023-02-17T05:40:46.944Z,26.67
2023-02-17T05:41:17.040Z,26.67
2023-02-17T05:41:47.162Z,26.67
2023-02-17T05:42:17.166Z,26.70
2023-02-17T05:42:47.153Z,26.72
2023-02-17T05:43:17.143Z,26.70
2023-02-17T05:43:47.152Z,26.70
2023-02-17T05:44:17.278Z,26.72
2023-02-17T05:44:47.364Z,26.74
2023-02-17T05:45:17.447Z,26.74
2023-02-17T05:45:47.531Z,26.72
2023-02-17T05:46:17.670Z,26.74
2023-02-17T05:46:47.684Z,26.75
2023-02-17T05:47:17.749Z,26.74
2023-02-17T05:47:47.834Z,26.74
2023-02-17T05:48:17.917Z,26.75
2023-02-17T05:48:47.995Z,26.77
2023-02-17T05:49:18.079Z,26.78
2023-02-17T05:49:48.162Z,26.78
2023-02-17T05:50:18.246Z,26.79
2023-02-17T05:50:48.328Z,26.79
2023-02-17T05:51:18.420Z,26.79
2023-02-17T05:51:48.527Z,26.79
2023-02-17T05:52:18.612Z,26.81
2023-02-17T05:52:48.692Z,26.82
2023-02-17T05:53:18.779Z,26.82
2023-02-17T05:53:48.854Z,26.84
2023-02-17T05:54:18.938Z,26.82
2023-02-17T05:54:49.035Z,26.85
2023-02-17T05:55:19.156Z,26.87
2023-02-17T05:55:49.171Z,26.85
2023-02-17T05:56:19.267Z,26.84
2023-02-17T05:56:49.386Z,26.88
2023-02-17T05:57:19.384Z,26.84
2023-02-17T05:57:49.384Z,26.87
2023-02-17T05:58:19.498Z,26.87
2023-02-17T05:58:49.614Z,26.85
2023-02-17T05:59:19.737Z,26.87
2023-02-17T05:59:49.849Z,26.88
2023-02-17T06:00:19.961Z,26.88
2023-02-17T06:00:49.964Z,26.88
2023-02-17T06:01:20.078Z,26.88
2023-02-17T06:01:50.079Z,26.91
2023-02-17T06:02:20.068Z,26.92
2023-02-17T06:02:50.095Z,26.91
2023-02-17T06:03:20.226Z,26.91
2023-02-17T06:03:50.111Z,26.95
2023-02-17T06:04:20.341Z,26.92
2023-02-17T06:04:50.445Z,26.92
2023-02-17T06:05:20.335Z,26.96
2023-02-17T06:05:50.335Z,26.95
2023-02-17T06:06:20.448Z,26.95
2023-02-17T06:06:50.442Z,26.96
2023-02-17T06:07:20.432Z,26.98
2023-02-17T06:07:50.551Z,26.96
2023-02-17T06:08:20.673Z,26.98
2023-02-17T06:08:50.785Z,26.98
2023-02-17T06:09:20.906Z,26.95
2023-02-17T06:09:50.905Z,26.98
2023-02-17T06:10:21.041Z,26.99
2023-02-17T06:10:51.153Z,26.98
2023-02-17T06:11:21.192Z,26.98
2023-02-17T06:11:51.167Z,26.98
2023-02-17T06:12:21.281Z,26.98
2023-02-17T06:12:51.295Z,26.98
2023-02-17T06:13:21.285Z,26.98
2023-02-17T06:13:51.287Z,26.96
2023-02-17T06:14:21.413Z,26.98
2023-02-17T06:14:51.401Z,26.95
2023-02-17T06:15:21.403Z,26.96
2023-02-17T06:15:51.643Z,26.98
2023-02-17T06:16:21.671Z,26.96
2023-02-17T06:16:51.640Z,26.94
2023-02-17T06:17:21.757Z,26.95
2023-02-17T06:17:51.878Z,26.92
2023-02-17T06:18:21.997Z,26.94
2023-02-17T06:18:52.008Z,26.94
2023-02-17T06:19:22.015Z,26.94
2023-02-17T06:19:52.009Z,26.91
2023-02-17T06:20:22.002Z,26.91
2023-02-17T06:20:52.122Z,26.91
2023-02-17T06:21:22.247Z,26.92
2023-02-17T06:21:52.253Z,26.89
2023-02-17T06:22:22.254Z,26.92
2023-02-17T06:22:52.245Z,26.91
2023-02-17T06:23:22.407Z,26.91
2023-02-17T06:23:53.062Z,26.88
2023-02-17T06:24:22.525Z,26.87
2023-02-17T06:24:52.573Z,26.88
2023-02-17T06:25:22.693Z,26.88
2023-02-17T06:25:52.700Z,26.87
2023-02-17T06:26:22.840Z,26.85
2023-02-17T06:26:52.823Z,26.85